createdAt,value
2022-11-26T00:01:22.684Z,7.00
2022-11-26T00:03:52.451Z,7.10
2022-11-26T00:06:34.352Z,7.00
2022-11-26T00:09:03.167Z,7.00
2022-11-26T00:11:30.618Z,7.00
2022-11-26T00:13:58.033Z,7.00
2022-11-26T00:16:31.937Z,7.00
2022-11-26T00:18:59.414Z,7.00
2022-11-26T00:21:27.032Z,7.00
2022-11-26T00:23:55.588Z,7.00
2022-11-26T00:26:25.323Z,7.00
2022-11-26T00:28:56.306Z,7.00
2022-11-26T00:31:24.244Z,7.00
2022-11-26T00:33:52.465Z,7.00
2022-11-26T00:36:27.415Z,7.00
2022-11-26T00:39:07.712Z,7.00
2022-11-26T00:41:38.725Z,7.00
2022-11-26T00:44:21.267Z,7.00
2022-11-26T00:46:49.425Z,7.00
2022-11-26T00:49:17.365Z,7.00
2022-11-26T00:51:46.144Z,6.90
2022-11-26T00:54:17.267Z,7.00
2022-11-26T00:56:45.112Z,7.00
2022-11-26T00:59:20.302Z,7.00
2022-11-26T01:01:48.067Z,7.00
2022-11-26T01:04:15.520Z,6.90
2022-11-26T01:06:44.839Z,6.90
2022-11-26T01:09:17.977Z,6.90
2022-11-26T01:11:47.840Z,6.90
2022-11-26T01:14:18.844Z,6.90
2022-11-26T01:16:47.819Z,7.00
2022-11-26T01:19:16.386Z,7.00
2022-11-26T01:21:43.910Z,7.00
2022-11-26T01:24:11.347Z,7.00
2022-11-26T01:26:43.976Z,7.00
2022-11-26T01:29:19.858Z,6.90
2022-11-26T01:31:47.758Z,6.90
2022-11-26T01:34:15.575Z,6.90
2022-11-26T01:36:43.289Z,6.90
2022-11-26T01:39:19.983Z,6.90
2022-11-26T01:42:03.278Z,6.90
2022-11-26T01:44:33.462Z,6.90
2022-11-26T01:47:02.063Z,6.90
2022-11-26T01:49:34.915Z,6.90
2022-11-26T01:52:13.036Z,6.90
2022-11-26T01:54:43.515Z,6.90
2022-11-26T01:57:18.523Z,6.90
2022-11-26T01:59:53.689Z,6.90
2022-11-26T02:02:27.198Z,6.90
2022-11-26T02:05:18.605Z,6.90
2022-11-26T02:07:47.027Z,7.00
2022-11-26T02:10:15.044Z,6.90
2022-11-26T02:12:43.048Z,6.90
2022-11-26T02:15:12.338Z,6.90
2022-11-26T02:17:47.471Z,7.00
2022-11-26T02:20:49.819Z,6.90
2022-11-26T02:23:54.826Z,6.90
2022-11-26T02:26:47.821Z,7.00
2022-11-26T02:29:38.238Z,7.00
2022-11-26T02:32:32.931Z,6.90
2022-11-26T02:35:52.596Z,7.00
2022-11-26T02:38:23.755Z,6.90
2022-11-26T02:40:51.957Z,6.90
2022-11-26T02:43:20.476Z,6.90
2022-11-26T02:45:55.891Z,6.90
2022-11-26T02:48:28.809Z,6.90
2022-11-26T02:51:03.979Z,6.90
2022-11-26T02:53:33.976Z,6.90
2022-11-26T02:56:11.884Z,6.90
2022-11-26T02:58:39.603Z,7.00
2022-11-26T03:01:11.711Z,6.90
2022-11-26T03:03:48.876Z,6.80
2022-11-26T03:06:19.073Z,6.80
2022-11-26T03:08:46.501Z,6.80
2022-11-26T03:11:13.991Z,6.80
2022-11-26T03:13:41.398Z,6.80
2022-11-26T03:16:08.796Z,6.90
2022-11-26T03:18:36.567Z,6.90
2022-11-26T03:21:04.160Z,6.80
2022-11-26T03:23:31.596Z,6.80
2022-11-26T03:25:59.026Z,6.80
2022-11-26T03:28:26.532Z,6.80
2022-11-26T03:30:53.887Z,6.70
2022-11-26T03:33:21.306Z,6.80
2022-11-26T03:35:49.823Z,6.80
2022-11-26T03:38:17.656Z,6.80
2022-11-26T03:40:45.255Z,6.70
2022-11-26T03:43:12.657Z,6.70
2022-11-26T03:45:39.960Z,6.70
2022-11-26T03:48:07.385Z,6.70
2022-11-26T03:50:34.728Z,6.70
2022-11-26T03:53:02.097Z,6.70
2022-11-26T03:55:29.432Z,6.70
2022-11-26T03:57:57.062Z,6.70
2022-11-26T04:00:24.437Z,6.70
2022-11-26T04:02:52.097Z,6.70
2022-11-26T04:05:19.554Z,6.70
2022-11-26T04:07:47.099Z,6.60
2022-11-26T04:10:14.556Z,6.70
2022-11-26T04:12:41.928Z,6.70
2022-11-26T04:15:10.180Z,6.60
2022-11-26T04:17:37.535Z,6.60
2022-11-26T04:20:05.776Z,6.70
2022-11-26T04:22:33.143Z,6.60
2022-11-26T04:25:00.548Z,6.60
2022-11-26T04:27:27.938Z,6.60
2022-11-26T04:29:55.343Z,6.60
2022-11-26T04:32:22.714Z,6.60
2022-11-26T04:34:50.143Z,6.70
2022-11-26T04:37:17.523Z,6.70
2022-11-26T04:39:44.896Z,6.70
2022-11-26T04:42:12.222Z,6.70
2022-11-26T04:44:39.743Z,6.70
2022-11-26T04:47:07.195Z,6.70
2022-11-26T04:49:34.597Z,6.70
2022-11-26T04:52:01.992Z,6.70
2022-11-26T04:54:29.404Z,6.70
2022-11-26T04:56:56.868Z,6.70
2022-11-26T04:59:24.249Z,6.70
2022-11-26T05:01:52.779Z,6.70
2022-11-26T05:04:20.413Z,6.80
2022-11-26T05:06:47.795Z,6.80
2022-11-26T05:09:15.174Z,6.80
2022-11-26T05:11:42.523Z,6.80
2022-11-26T05:14:09.920Z,6.90
2022-11-26T05:16:37.473Z,6.90
2022-11-26T05:19:04.889Z,7.00
2022-11-26T05:21:32.310Z,6.90
2022-11-26T05:23:59.703Z,7.00
2022-11-26T05:26:27.546Z,7.00
2022-11-26T05:28:54.920Z,7.00
2022-11-26T05:31:22.324Z,7.00
2022-11-26T05:33:49.758Z,7.00
2022-11-26T05:36:17.104Z,7.00
2022-11-26T05:38:44.576Z,7.00
2022-11-26T05:41:11.967Z,7.00
2022-11-26T05:43:39.367Z,7.00
2022-11-26T05:46:07.673Z,7.10
2022-11-26T05:48:35.320Z,7.10
2022-11-26T05:51:03.559Z,7.10
2022-11-26T05:53:30.953Z,7.10
2022-11-26T05:55:58.306Z,7.10
2022-11-26T05:58:25.923Z,7.10
2022-11-26T06:00:53.715Z,7.10
2022-11-26T06:03:21.219Z,7.10
2022-11-26T06:05:48.709Z,7.00
2022-11-26T06:08:16.160Z,7.10
2022-11-26T06:10:44.135Z,7.00
2022-11-26T06:13:11.520Z,7.00
2022-11-26T06:15:38.847Z,7.00
2022-11-26T06:18:06.239Z,7.00
2022-11-26T06:20:33.686Z,7.00
2022-11-26T06:23:01.210Z,7.00
2022-11-26T06:25:28.650Z,7.00
2022-11-26T06:27:56.428Z,7.00
2022-11-26T06:30:24.105Z,7.00
2022-11-26T06:32:51.580Z,7.00
2022-11-26T06:35:18.980Z,7.00
2022-11-26T06:37:46.386Z,7.00
2022-11-26T06:40:18.124Z,7.00
2022-11-26T06:42:53.185Z,7.00
2022-11-26T06:45:22.154Z,7.00
2022-11-26T06:47:50.917Z,7.00
2022-11-26T06:50:21.374Z,7.10
2022-11-26T06:52:56.176Z,7.00
2022-11-26T06:55:23.520Z,7.10
2022-11-26T06:57:52.276Z,7.10
2022-11-26T07:00:20.198Z,7.10
2022-11-26T07:02:47.900Z,7.10
2022-11-26T07:05:15.383Z,7.10
2022-11-26T07:07:43.050Z,7.10
2022-11-26T07:10:10.883Z,7.10
2022-11-26T07:12:38.317Z,7.10
2022-11-26T07:15:06.550Z,7.10
2022-11-26T07:17:33.923Z,7.10
2022-11-26T07:20:01.405Z,7.20
2022-11-26T07:22:28.739Z,7.10
2022-11-26T07:24:56.266Z,7.20
2022-11-26T07:27:23.586Z,7.20
2022-11-26T07:29:52.059Z,7.20
2022-11-26T07:32:20.004Z,7.20
2022-11-26T07:34:47.403Z,7.20
2022-11-26T07:37:14.853Z,7.30
2022-11-26T07:39:42.491Z,7.20
2022-11-26T07:42:09.837Z,7.30
2022-11-26T07:44:37.617Z,7.20
2022-11-26T07:47:05.300Z,7.20
2022-11-26T07:49:32.658Z,7.30
2022-11-26T07:51:59.982Z,7.30
2022-11-26T07:54:27.366Z,7.30
2022-11-26T07:56:54.674Z,7.30
2022-11-26T07:59:22.747Z,7.30
2022-11-26T08:01:50.163Z,7.30
2022-11-26T08:04:17.698Z,7.40
2022-11-26T08:06:45.081Z,7.40
2022-11-26T08:09:12.895Z,7.40
2022-11-26T08:11:40.277Z,7.50
2022-11-26T08:14:10.905Z,7.50
2022-11-26T08:16:38.620Z,7.50
2022-11-26T08:19:08.833Z,7.50
2022-11-26T08:21:36.482Z,7.60
2022-11-26T08:24:05.068Z,7.60
2022-11-26T08:26:37.047Z,7.60
2022-11-26T08:29:06.202Z,7.70
2022-11-26T08:31:34.971Z,7.70
2022-11-26T08:34:03.559Z,7.70
2022-11-26T08:36:31.400Z,7.70
2022-11-26T08:39:00.065Z,7.60
2022-11-26T08:41:27.743Z,7.60
2022-11-26T08:44:10.396Z,7.60
2022-11-26T08:46:39.779Z,7.60
2022-11-26T08:49:10.704Z,7.70
2022-11-26T08:51:38.338Z,8.00
2022-11-26T08:54:05.769Z,8.10
2022-11-26T08:56:34.192Z,8.20
2022-11-26T08:59:01.866Z,8.30
2022-11-26T09:01:32.353Z,8.20
2022-11-26T09:04:01.626Z,8.20
2022-11-26T09:06:31.063Z,8.10
2022-11-26T09:09:13.183Z,8.10
2022-11-26T09:11:45.671Z,8.20
2022-11-26T09:14:16.773Z,8.20
2022-11-26T09:16:44.458Z,8.30
2022-11-26T09:19:13.144Z,8.30
2022-11-26T09:21:40.796Z,8.30
2022-11-26T09:24:08.511Z,8.30
2022-11-26T09:26:35.896Z,8.30
2022-11-26T09:29:04.118Z,8.40
2022-11-26T09:31:32.092Z,8.40
2022-11-26T09:34:00.903Z,8.50
2022-11-26T09:36:28.972Z,8.50
2022-11-26T09:38:58.085Z,8.50
2022-11-26T09:42:01.624Z,8.50
2022-11-26T09:45:06.793Z,8.60
2022-11-26T09:47:40.640Z,8.70
2022-11-26T09:50:10.745Z,8.80
2022-11-26T09:52:52.307Z,8.80
2022-11-26T09:55:24.143Z,8.60
2022-11-26T09:58:30.417Z,8.60
2022-11-26T10:01:00.617Z,8.70
2022-11-26T10:03:34.604Z,8.70
2022-11-26T10:06:39.926Z,8.70
2022-11-26T10:09:50.315Z,8.70
2022-11-26T10:13:16.763Z,8.70
2022-11-26T10:16:22.893Z,8.70
2022-11-26T10:19:18.265Z,8.80
2022-11-26T10:21:59.261Z,8.80
2022-11-26T10:24:32.052Z,8.80
2022-11-26T10:27:10.901Z,8.80
2022-11-26T10:29:42.389Z,8.70
2022-11-26T10:32:35.630Z,8.60
2022-11-26T10:35:03.343Z,8.50
2022-11-26T10:37:30.924Z,8.50
2022-11-26T10:40:24.500Z,8.40
2022-11-26T10:43:18.239Z,8.40
2022-11-26T10:45:51.740Z,8.40
2022-11-26T10:48:44.184Z,8.30
2022-11-26T10:51:26.412Z,8.30
2022-11-26T10:53:57.788Z,8.20
2022-11-26T10:56:46.423Z,8.20
2022-11-26T10:59:36.505Z,8.20
2022-11-26T11:02:25.016Z,8.30
2022-11-26T11:04:56.083Z,8.30
2022-11-26T11:07:41.614Z,8.30
2022-11-26T11:10:20.407Z,8.30
2022-11-26T11:13:12.147Z,8.30
2022-11-26T11:15:41.143Z,8.30
2022-11-26T11:18:20.298Z,8.30
2022-11-26T11:21:03.414Z,8.30
2022-11-26T11:24:06.959Z,8.40
2022-11-26T11:26:26.052Z,8.40
2022-11-26T11:28:55.387Z,8.50
2022-11-26T11:31:25.298Z,8.60
2022-11-26T11:34:13.689Z,8.60
2022-11-26T11:36:41.229Z,8.70
2022-11-26T11:39:27.992Z,8.80
2022-11-26T11:41:55.822Z,8.80
2022-11-26T11:44:27.185Z,8.90
2022-11-26T11:47:32.984Z,8.90
2022-11-26T11:50:34.291Z,8.90
2022-11-26T11:53:28.926Z,9.00
2022-11-26T11:56:38.562Z,9.00
2022-11-26T11:59:37.124Z,9.10
2022-11-26T12:02:42.366Z,9.00
2022-11-26T12:05:43.050Z,9.00
2022-11-26T12:08:58.625Z,9.00
2022-11-26T12:11:50.830Z,9.00
2022-11-26T12:14:28.928Z,9.10
2022-11-26T12:17:06.673Z,9.10
2022-11-26T12:19:52.320Z,9.10
2022-11-26T12:22:29.898Z,9.10
2022-11-26T12:25:36.612Z,9.10
2022-11-26T12:28:12.613Z,9.10
2022-11-26T12:30:55.745Z,9.20
2022-11-26T12:33:41.523Z,9.20
2022-11-26T12:36:19.873Z,9.10
2022-11-26T12:38:57.747Z,9.10
2022-11-26T12:41:32.933Z,9.00
2022-11-26T12:44:24.028Z,8.90
2022-11-26T12:47:17.342Z,8.80
2022-11-26T12:50:27.540Z,8.80
2022-11-26T12:53:18.467Z,8.80
2022-11-26T12:56:04.409Z,8.90
2022-11-26T12:59:02.885Z,8.90
2022-11-26T13:01:31.957Z,9.00
2022-11-26T13:04:29.403Z,9.10
2022-11-26T13:07:17.477Z,9.20
2022-11-26T13:09:59.410Z,9.20
2022-11-26T13:12:59.711Z,9.30
2022-11-26T13:16:02.415Z,9.20
2022-11-26T13:18:38.829Z,9.20
2022-11-26T13:21:43.336Z,9.20
2022-11-26T13:24:46.315Z,9.10
2022-11-26T13:31:27.450Z,9.10
2022-11-26T14:02:37.480Z,9.10
2022-11-26T14:05:08.210Z,9.00
2022-11-26T14:07:35.901Z,8.90
2022-11-26T14:10:06.655Z,8.90
2022-11-26T14:13:04.891Z,8.80
2022-11-26T14:15:51.097Z,8.80
2022-11-26T14:18:56.606Z,8.70
2022-11-26T14:21:24.853Z,8.80
2022-11-26T14:23:54.888Z,8.70
2022-11-26T14:26:34.607Z,8.70
2022-11-26T14:29:20.501Z,8.70
2022-11-26T14:31:53.602Z,8.60
2022-11-26T14:34:39.798Z,8.60
2022-11-26T14:37:15.947Z,8.50
2022-11-26T14:39:43.793Z,8.60
2022-11-26T14:42:18.634Z,8.50
2022-11-26T14:44:46.191Z,8.40
2022-11-26T14:47:21.956Z,8.30
2022-11-26T14:49:54.420Z,8.00
2022-11-26T14:52:40.678Z,7.90
2022-11-26T14:55:30.264Z,7.80
2022-11-26T14:58:10.050Z,7.60
2022-11-26T15:00:37.555Z,7.40
2022-11-26T15:03:23.027Z,7.20
2022-11-26T15:05:50.426Z,7.10
2022-11-26T15:08:20.459Z,7.00
2022-11-26T15:10:55.537Z,6.80
2022-11-26T15:13:43.032Z,6.70
2022-11-26T15:16:53.981Z,6.50
2022-11-26T15:19:22.054Z,6.30
2022-11-26T15:21:49.475Z,6.10
2022-11-26T15:24:17.182Z,5.90
2022-11-26T15:26:47.408Z,5.70
2022-11-26T15:29:34.291Z,5.70
2022-11-26T15:32:02.163Z,5.50
2022-11-26T15:34:30.440Z,5.20
2022-11-26T15:36:58.133Z,5.00
2022-11-26T15:39:31.141Z,4.90
2022-11-26T15:42:26.150Z,4.70
2022-11-26T15:44:53.889Z,4.60
2022-11-26T15:47:24.222Z,4.50
2022-11-26T15:49:58.912Z,4.60
2022-11-26T15:52:32.530Z,4.50
2022-11-26T15:55:12.868Z,4.60
2022-11-26T15:57:42.049Z,4.60
2022-11-26T16:00:22.708Z,4.70
2022-11-26T16:02:52.272Z,4.80
2022-11-26T16:05:38.134Z,4.90
2022-11-26T16:08:30.320Z,5.00
2022-11-26T16:11:18.794Z,5.00
2022-11-26T16:13:46.657Z,5.10
2022-11-26T16:16:23.250Z,5.20
2022-11-26T16:19:00.343Z,5.20
2022-11-26T16:21:33.297Z,5.40
2022-11-26T16:24:07.213Z,5.50
2022-11-26T16:26:57.479Z,5.50
2022-11-26T16:29:26.025Z,5.60
2022-11-26T16:31:53.647Z,5.60
2022-11-26T16:34:21.104Z,5.70
2022-11-26T16:36:48.793Z,5.70
2022-11-26T16:39:17.162Z,5.70
2022-11-26T16:41:44.598Z,5.80
2022-11-26T16:44:12.061Z,5.80
2022-11-26T16:46:41.128Z,5.90
2022-11-26T16:49:10.550Z,5.80
2022-11-26T16:51:37.900Z,5.80
2022-11-26T16:54:05.340Z,5.80
2022-11-26T16:56:37.504Z,5.80
2022-11-26T16:59:19.702Z,5.80
2022-11-26T17:01:47.129Z,5.90
2022-11-26T17:04:14.798Z,5.90
2022-11-26T17:06:43.302Z,5.90
2022-11-26T17:09:17.722Z,6.00
2022-11-26T17:11:45.174Z,6.00
2022-11-26T17:14:12.916Z,6.00
2022-11-26T17:16:41.107Z,6.00
2022-11-26T17:19:13.329Z,5.90
2022-11-26T17:21:40.728Z,5.90
2022-11-26T17:24:08.681Z,5.90
2022-11-26T17:26:36.194Z,5.80
2022-11-26T17:29:04.105Z,5.90
2022-11-26T17:31:31.614Z,5.80
2022-11-26T17:33:59.234Z,5.90
2022-11-26T17:36:26.836Z,5.80
2022-11-26T17:38:54.320Z,5.90
2022-11-26T17:41:21.736Z,5.90
2022-11-26T17:43:49.179Z,6.00
2022-11-26T17:46:19.557Z,6.00
2022-11-26T17:48:48.480Z,6.00
2022-11-26T17:51:16.075Z,6.10
2022-11-26T17:53:44.055Z,6.00
2022-11-26T17:56:24.751Z,6.00
2022-11-26T17:58:52.599Z,5.90
2022-11-26T18:01:20.833Z,5.90
2022-11-26T18:03:48.404Z,6.00
2022-11-26T18:06:18.015Z,5.90
2022-11-26T18:08:45.951Z,5.80
2022-11-26T18:11:15.422Z,5.70
2022-11-26T18:13:43.042Z,5.60
2022-11-26T18:16:10.392Z,5.50
2022-11-26T18:18:37.772Z,5.40
2022-11-26T18:21:05.587Z,5.30
2022-11-26T18:23:33.283Z,5.20
2022-11-26T18:26:01.038Z,5.10
2022-11-26T18:28:28.773Z,5.10
2022-11-26T18:30:59.890Z,5.10
2022-11-26T18:33:27.405Z,5.20
2022-11-26T18:35:54.786Z,5.30
2022-11-26T18:38:22.232Z,5.30
2022-11-26T18:40:59.226Z,5.30
2022-11-26T18:43:26.638Z,5.20
2022-11-26T18:45:54.004Z,5.20
2022-11-26T18:48:21.482Z,5.20
2022-11-26T18:50:58.698Z,5.20
2022-11-26T18:53:26.977Z,5.20
2022-11-26T18:55:55.503Z,5.20
2022-11-26T18:58:24.092Z,5.20
2022-11-26T19:00:54.608Z,5.30
2022-11-26T19:03:22.109Z,5.30
2022-11-26T19:05:51.645Z,5.20
2022-11-26T19:08:23.737Z,5.20
2022-11-26T19:10:51.766Z,5.20
2022-11-26T19:13:19.129Z,5.20
2022-11-26T19:15:46.536Z,5.20
2022-11-26T19:18:14.516Z,5.20
2022-11-26T19:20:52.901Z,5.30
2022-11-26T19:23:24.452Z,5.30
2022-11-26T19:25:52.209Z,5.30
2022-11-26T19:28:19.989Z,5.30
2022-11-26T19:31:07.605Z,5.30
2022-11-26T19:33:35.429Z,5.30
2022-11-26T19:36:04.994Z,5.30
2022-11-26T19:38:32.822Z,5.40
2022-11-26T19:41:00.782Z,5.40
2022-11-26T19:43:30.287Z,5.30
2022-11-26T19:46:12.720Z,5.30
2022-11-26T19:48:42.041Z,5.30
2022-11-26T19:51:10.542Z,5.20
2022-11-26T19:53:38.730Z,5.10
2022-11-26T19:56:09.050Z,5.00
2022-11-26T19:58:37.221Z,4.90
2022-11-26T20:01:10.354Z,4.90
2022-11-26T20:03:38.214Z,4.80
2022-11-26T20:06:08.027Z,4.80
2022-11-26T20:08:38.563Z,4.80
2022-11-26T20:11:07.627Z,4.70
2022-11-26T20:13:36.424Z,4.70
2022-11-26T20:16:28.547Z,4.70
2022-11-26T20:18:57.161Z,4.70
2022-11-26T20:21:27.153Z,4.70
2022-11-26T20:23:57.476Z,4.60
2022-11-26T20:26:35.459Z,4.60
2022-11-26T20:29:07.041Z,4.50
2022-11-26T20:31:35.025Z,4.50
2022-11-26T20:34:03.873Z,4.50
2022-11-26T20:36:31.751Z,4.50
2022-11-26T20:39:01.440Z,4.50
2022-11-26T20:41:29.702Z,4.40
2022-11-26T20:43:59.495Z,4.50
2022-11-26T20:46:28.685Z,4.60
2022-11-26T20:48:56.676Z,4.60
2022-11-26T20:51:24.707Z,4.50
2022-11-26T20:53:52.840Z,4.60
2022-11-26T20:56:21.818Z,4.50
2022-11-26T20:58:50.325Z,4.50
2022-11-26T21:01:23.786Z,4.40
2022-11-26T21:03:52.704Z,4.30
2022-11-26T21:06:27.640Z,4.20
2022-11-26T21:09:01.542Z,4.10
2022-11-26T21:11:30.286Z,4.20
2022-11-26T21:13:58.919Z,4.20
2022-11-26T21:16:26.361Z,4.10
2022-11-26T21:18:56.608Z,4.00
2022-11-26T21:21:25.382Z,4.10
2022-11-26T21:23:53.925Z,4.10
2022-11-26T21:26:23.720Z,4.00
2022-11-26T21:28:54.095Z,4.30
2022-11-26T21:31:22.092Z,4.40
2022-11-26T21:33:56.264Z,4.40
2022-11-26T21:36:24.602Z,4.40
2022-11-26T21:38:52.320Z,4.30
2022-11-26T21:41:20.456Z,4.30
2022-11-26T21:43:48.630Z,4.20
2022-11-26T21:46:27.273Z,4.20
2022-11-26T21:48:56.006Z,4.20
2022-11-26T21:51:26.066Z,4.30
2022-11-26T21:53:54.867Z,4.40
2022-11-26T21:56:27.575Z,4.40
2022-11-26T21:58:59.569Z,4.40
2022-11-26T22:01:33.218Z,4.40
2022-11-26T22:04:03.476Z,4.40
2022-11-26T22:06:31.325Z,4.40
2022-11-26T22:08:58.818Z,4.50
2022-11-26T22:11:29.294Z,4.40
2022-11-26T22:13:57.445Z,4.50
2022-11-26T22:16:26.684Z,4.60
2022-11-26T22:18:56.145Z,4.60
2022-11-26T22:21:43.894Z,4.50
2022-11-26T22:24:16.134Z,4.70
2022-11-26T22:26:44.039Z,4.80
2022-11-26T22:29:16.511Z,4.90
2022-11-26T22:31:44.541Z,4.90
2022-11-26T22:34:15.275Z,4.80
2022-11-26T22:36:44.004Z,4.80
2022-11-26T22:39:14.290Z,4.80
2022-11-26T22:41:42.925Z,4.80
2022-11-26T22:44:11.084Z,4.90
2022-11-26T22:46:38.602Z,5.00
2022-11-26T22:49:07.019Z,5.00
2022-11-26T22:51:35.176Z,5.00
2022-11-26T22:54:07.062Z,4.80
2022-11-26T22:56:37.808Z,4.80
2022-11-26T22:59:07.178Z,4.80
2022-11-26T23:01:36.516Z,4.80
2022-11-26T23:04:06.649Z,4.50
2022-11-26T23:06:35.348Z,4.40
2022-11-26T23:09:05.198Z,4.10
2022-11-26T23:11:36.262Z,4.10
2022-11-26T23:14:07.369Z,4.00
2022-11-26T23:16:36.293Z,4.00
2022-11-26T23:19:04.258Z,4.00
2022-11-26T23:21:34.668Z,4.00
2022-11-26T23:24:02.084Z,4.00
2022-11-26T23:26:32.806Z,4.10
2022-11-26T23:29:02.161Z,4.30
2022-11-26T23:31:38.736Z,4.20
2022-11-26T23:34:07.017Z,4.20
2022-11-26T23:36:35.124Z,4.30
2022-11-26T23:39:05.374Z,4.20
2022-11-26T23:41:33.244Z,4.10
2022-11-26T23:44:00.667Z,4.10
2022-11-26T23:46:31.071Z,4.00
2022-11-26T23:48:58.982Z,3.90
2022-11-26T23:51:29.514Z,3.90
2022-11-26T23:53:57.593Z,3.80
2022-11-26T23:56:27.373Z,3.80
2022-11-26T23:58:57.661Z,3.80
